createdAt,value
2022-08-27T00:00:58.345Z,37.29
2022-08-27T00:06:23.489Z,37.58
2022-08-27T00:11:47.518Z,37.60
2022-08-27T00:17:13.572Z,37.43
2022-08-27T00:22:39.104Z,38.13
2022-08-27T00:28:03.180Z,38.36
2022-08-27T00:33:28.664Z,38.43
2022-08-27T00:38:54.059Z,39.01
2022-08-27T00:44:23.280Z,38.90
2022-08-27T00:49:50.385Z,38.50
2022-08-27T00:55:18.079Z,38.11
2022-08-27T01:00:42.341Z,38.24
2022-08-27T01:06:11.416Z,38.32
2022-08-27T01:11:40.190Z,37.89
2022-08-27T01:17:05.383Z,37.89
2022-08-27T01:22:35.273Z,37.21
2022-08-27T01:28:02.944Z,37.24
2022-08-27T01:33:26.712Z,37.21
2022-08-27T01:38:51.610Z,37.62
2022-08-27T01:44:21.033Z,37.23
2022-08-27T01:49:45.600Z,37.48
2022-08-27T01:55:13.033Z,37.79
2022-08-27T02:00:40.436Z,37.83
2022-08-27T02:06:06.653Z,37.79
2022-08-27T02:11:31.116Z,38.09
2022-08-27T02:16:57.486Z,37.69
2022-08-27T02:22:24.489Z,37.63
2022-08-27T02:27:50.734Z,37.41
2022-08-27T02:33:17.077Z,37.85
2022-08-27T02:38:42.088Z,37.59
2022-08-27T02:44:10.370Z,38.13
2022-08-27T02:49:35.882Z,38.44
2022-08-27T02:55:00.385Z,38.32
2022-08-27T03:00:25.746Z,38.09
2022-08-27T03:05:53.020Z,38.27
2022-08-27T03:11:18.914Z,38.59
2022-08-27T03:16:43.056Z,39.12
2022-08-27T03:22:08.890Z,39.47
2022-08-27T03:27:33.022Z,39.58
2022-08-27T03:32:57.403Z,39.54
2022-08-27T03:38:23.073Z,39.05
2022-08-27T03:43:49.800Z,39.30
2022-08-27T03:49:14.043Z,39.66
2022-08-27T03:54:40.322Z,38.83
2022-08-27T04:00:06.150Z,38.59
2022-08-27T04:05:37.286Z,38.74
2022-08-27T04:11:06.061Z,38.17
2022-08-27T04:16:31.988Z,37.97
2022-08-27T04:21:59.560Z,38.01
2022-08-27T04:27:26.547Z,38.11
2022-08-27T04:32:50.765Z,37.59
2022-08-27T04:38:15.448Z,37.37
2022-08-27T04:43:41.085Z,37.51
2022-08-27T04:49:09.002Z,37.30
2022-08-27T04:54:35.292Z,37.66
2022-08-27T05:00:01.215Z,37.11
2022-08-27T05:05:25.249Z,37.21
2022-08-27T05:10:50.923Z,37.14
2022-08-27T05:16:18.355Z,37.19
2022-08-27T05:21:45.698Z,35.94
2022-08-27T05:27:09.979Z,35.63
2022-08-27T05:32:39.747Z,34.40
2022-08-27T05:38:03.945Z,34.65
2022-08-27T05:43:28.015Z,33.92
2022-08-27T05:48:57.148Z,33.26
2022-08-27T05:54:21.102Z,31.84
2022-08-27T06:00:02.817Z,32.01
2022-08-27T06:05:37.988Z,31.34
2022-08-27T06:11:03.480Z,28.11
2022-08-27T06:16:28.135Z,25.72
2022-08-27T06:22:01.262Z,24.20
2022-08-27T06:27:35.022Z,23.93
2022-08-27T06:32:59.215Z,23.11
2022-08-27T06:38:25.825Z,22.63
2022-08-27T06:43:50.117Z,21.78
2022-08-27T06:49:14.732Z,21.50
2022-08-27T06:54:40.606Z,21.17
2022-08-27T07:00:04.931Z,20.19
2022-08-27T07:05:28.819Z,20.10
2022-08-27T07:10:58.268Z,20.49
2022-08-27T07:16:24.133Z,20.16
2022-08-27T07:21:48.600Z,19.81
2022-08-27T07:27:17.049Z,19.02
2022-08-27T07:32:41.100Z,19.63
2022-08-27T07:38:04.759Z,18.67
2022-08-27T07:43:47.735Z,19.35
2022-08-27T07:49:12.058Z,19.01
2022-08-27T07:54:35.839Z,18.26
2022-08-27T08:00:01.519Z,18.81
2022-08-27T08:05:25.012Z,18.54
2022-08-27T08:10:49.090Z,18.49
2022-08-27T08:16:14.935Z,18.25
2022-08-27T08:21:38.850Z,18.47
2022-08-27T08:27:06.851Z,18.42
2022-08-27T08:32:33.630Z,18.48
2022-08-27T08:37:58.651Z,18.88
2022-08-27T08:43:28.286Z,18.89
2022-08-27T08:48:56.115Z,18.49
2022-08-27T08:54:21.759Z,18.22
2022-08-27T08:59:48.779Z,18.82
2022-08-27T09:05:14.805Z,19.48
2022-08-27T09:10:42.880Z,19.16
2022-08-27T09:16:07.765Z,18.81
2022-08-27T09:21:37.495Z,18.63
2022-08-27T09:27:02.366Z,18.79
2022-08-27T09:32:27.692Z,19.37
2022-08-27T09:37:56.028Z,19.38
2022-08-27T09:43:22.375Z,19.51
2022-08-27T09:48:46.647Z,19.45
2022-08-27T09:54:25.008Z,20.01
2022-08-27T09:59:52.590Z,20.53
2022-08-27T10:05:24.504Z,20.57
2022-08-27T10:10:53.951Z,20.36
2022-08-27T10:16:27.487Z,19.79
2022-08-27T10:21:58.288Z,19.58
2022-08-27T10:27:28.716Z,21.46
2022-08-27T10:32:58.777Z,22.06
2022-08-27T10:38:32.881Z,22.05
2022-08-27T10:44:20.908Z,21.75
2022-08-27T10:49:52.586Z,22.90
2022-08-27T10:55:21.037Z,22.92
2022-08-27T11:00:49.994Z,23.27
2022-08-27T11:06:19.466Z,24.25
2022-08-27T11:17:33.762Z,22.67
2022-08-27T11:23:02.216Z,22.11
2022-08-27T11:28:32.256Z,22.07
2022-08-27T11:34:01.181Z,21.64
2022-08-27T11:39:35.607Z,22.12
2022-08-27T11:45:04.815Z,22.06
2022-08-27T11:50:32.033Z,22.24
2022-08-27T11:55:58.460Z,22.17
2022-08-27T12:01:27.033Z,21.65
2022-08-27T12:06:52.504Z,21.81
2022-08-27T12:12:23.052Z,22.47
2022-08-27T12:18:00.117Z,23.35
2022-08-27T12:23:42.416Z,23.41
2022-08-27T12:29:27.711Z,23.18
2022-08-27T12:35:00.182Z,23.47
2022-08-27T12:40:29.439Z,23.18
2022-08-27T12:45:58.491Z,23.73
2022-08-27T12:51:24.753Z,24.75
2022-08-27T12:56:56.210Z,24.14
2022-08-27T13:02:31.253Z,23.90
2022-08-27T13:07:55.563Z,24.54
2022-08-27T13:13:20.962Z,24.94
2022-08-27T13:18:49.599Z,25.00
2022-08-27T13:24:13.285Z,25.41
2022-08-27T13:29:37.236Z,25.54
2022-08-27T13:35:03.108Z,25.82
2022-08-27T13:40:28.990Z,26.63
2022-08-27T13:45:59.897Z,27.54
2022-08-27T13:51:28.023Z,27.06
2022-08-27T13:57:03.664Z,28.55
2022-08-27T14:02:29.592Z,28.81
2022-08-27T14:07:56.303Z,29.52
2022-08-27T14:13:22.958Z,29.39
2022-08-27T14:19:01.464Z,30.19
2022-08-27T14:24:27.578Z,29.95
2022-08-27T14:29:51.920Z,30.05
2022-08-27T14:35:16.513Z,30.11
2022-08-27T14:40:54.586Z,29.90
2022-08-27T14:46:21.451Z,30.08
2022-08-27T14:51:47.118Z,29.31
2022-08-27T14:57:12.110Z,29.96
2022-08-27T15:02:36.644Z,30.22
2022-08-27T15:08:00.732Z,30.33
2022-08-27T15:13:25.816Z,30.84
2022-08-27T15:18:53.667Z,30.81
2022-08-27T15:24:26.066Z,31.98
2022-08-27T15:29:53.412Z,32.61
2022-08-27T15:35:19.603Z,33.51
2022-08-27T15:40:43.750Z,33.79
2022-08-27T15:46:10.403Z,34.68
2022-08-27T15:51:35.242Z,35.16
2022-08-27T15:57:00.112Z,35.82
2022-08-27T16:02:25.940Z,35.53
2022-08-27T16:07:51.918Z,35.99
2022-08-27T16:13:16.756Z,36.67
2022-08-27T16:18:43.459Z,37.31
2022-08-27T16:24:09.280Z,38.74
2022-08-27T16:29:34.822Z,40.10
2022-08-27T16:35:00.610Z,40.07
2022-08-27T16:40:51.459Z,40.13
2022-08-27T16:46:15.688Z,39.67
2022-08-27T16:51:43.725Z,39.94
2022-08-27T16:57:07.639Z,40.29
2022-08-27T17:02:35.026Z,39.77
2022-08-27T17:08:00.554Z,40.23
2022-08-27T17:13:28.354Z,40.88
2022-08-27T17:18:52.858Z,41.00
2022-08-27T17:24:18.649Z,41.49
2022-08-27T17:29:42.755Z,41.38
2022-08-27T17:35:07.999Z,41.32
2022-08-27T17:40:34.231Z,41.54
2022-08-27T17:45:59.298Z,41.90
2022-08-27T17:51:23.606Z,42.65
2022-08-27T17:56:49.154Z,42.97
2022-08-27T18:02:16.356Z,42.96
2022-08-27T18:07:40.329Z,42.42
2022-08-27T18:13:05.857Z,42.45
2022-08-27T18:18:29.431Z,42.64
2022-08-27T18:23:53.406Z,43.16
2022-08-27T18:29:18.985Z,44.16
2022-08-27T18:34:42.975Z,44.97
2022-08-27T18:40:08.501Z,45.51
2022-08-27T18:45:36.074Z,45.21
2022-08-27T18:51:02.363Z,45.29
2022-08-27T18:56:26.374Z,45.94
2022-08-27T19:01:52.268Z,46.24
2022-08-27T19:07:19.412Z,47.62
2022-08-27T19:12:46.917Z,46.34
2022-08-27T19:18:12.693Z,47.08
2022-08-27T19:23:39.417Z,46.94
2022-08-27T19:29:05.635Z,47.68
2022-08-27T19:34:31.173Z,48.53
2022-08-27T19:39:56.482Z,47.55
2022-08-27T19:45:24.348Z,47.24
2022-08-27T19:50:50.961Z,47.03
2022-08-27T19:56:15.244Z,46.47
2022-08-27T20:01:43.332Z,46.26
2022-08-27T20:07:08.968Z,46.65
2022-08-27T20:12:33.082Z,46.66
2022-08-27T20:17:59.302Z,47.14
2022-08-27T20:23:25.841Z,47.41
2022-08-27T20:28:51.362Z,47.33
2022-08-27T20:34:15.592Z,47.20
2022-08-27T20:39:41.290Z,47.65
2022-08-27T20:45:09.789Z,48.12
2022-08-27T20:50:35.875Z,48.79
2022-08-27T20:56:03.037Z,48.77
2022-08-27T21:01:27.436Z,49.44
2022-08-27T21:06:52.853Z,49.27
2022-08-27T21:12:22.742Z,50.01
2022-08-27T21:17:46.858Z,50.18
2022-08-27T21:23:10.666Z,49.95
2022-08-27T21:28:35.776Z,50.03
2022-08-27T21:33:59.653Z,51.47
2022-08-27T21:39:24.143Z,51.88
2022-08-27T21:44:49.497Z,52.53
2022-08-27T21:50:13.765Z,54.13
2022-08-27T21:55:37.796Z,54.80
2022-08-27T22:01:05.502Z,56.26
2022-08-27T22:06:30.594Z,55.78
2022-08-27T22:11:54.228Z,56.57
2022-08-27T22:17:21.793Z,56.72
2022-08-27T22:22:46.121Z,57.13
2022-08-27T22:28:10.085Z,56.61
2022-08-27T22:33:35.122Z,56.29
2022-08-27T22:39:03.401Z,54.80
2022-08-27T22:44:29.394Z,55.78
2022-08-27T22:49:54.604Z,54.22
2022-08-27T22:55:24.282Z,53.62
2022-08-27T23:00:52.203Z,53.36
2022-08-27T23:06:17.860Z,54.36
2022-08-27T23:11:42.102Z,54.39
2022-08-27T23:17:05.962Z,54.23
2022-08-27T23:22:31.526Z,55.67
2022-08-27T23:27:57.394Z,57.28
2022-08-27T23:33:24.033Z,59.71
2022-08-27T23:38:51.111Z,60.30
2022-08-27T23:44:16.115Z,60.26
2022-08-27T23:49:40.163Z,59.57
2022-08-27T23:55:06.105Z,60.36
